Time;durP1;ratioP1;P1;durP2;ratioP2;P2;SDS_P1;SDS_P2;PMS_P1;PMS_P2;Temp;Humidity;BMP_temperature;BMP_pressure;BME280_temperature;BME280_humidity;BME280_pressure;Samples;Min_cycle;Max_cycle;Signal;HPM_P1;HPM_P2
2022/01/18 00:00:07;;;;;;;29.77;18.17;;;7.20;99.90;;;;;;5045321;28;20459;-73
2022/01/18 00:02:33;;;;;;;24.27;18.07;;;7.10;99.90;;;;;;5052554;28;20471;-72
2022/01/18 00:05:01;;;;;;;28.03;18.40;;;7.10;99.90;;;;;;5061209;28;20480;-73
2022/01/18 00:07:29;;;;;;;33.07;18.67;;;7.00;99.90;;;;;;5061910;28;20467;-74
2022/01/18 00:09:55;;;;;;;27.10;18.23;;;7.00;99.90;;;;;;5057349;28;20467;-72
2022/01/18 00:12:43;;;;;;;22.87;18.60;;;6.90;99.90;;;;;;5052405;28;20483;-69
2022/01/18 00:15:31;;;;;;;27.17;18.17;;;6.90;99.90;;;;;;5050367;28;21070;-69
2022/01/18 00:18:08;;;;;;;27.43;18.60;;;7.00;99.90;;;;;;5056758;28;20494;-69
2022/01/18 00:20:47;;;;;;;36.90;18.13;;;7.00;99.90;;;;;;5052892;28;20550;-70
2022/01/18 00:23:16;;;;;;;22.07;17.93;;;7.00;99.90;;;;;;5055152;28;20537;-69
2022/01/18 00:25:47;;;;;;;32.90;19.90;;;7.00;99.90;;;;;;5046408;28;20463;-70
2022/01/18 00:28:14;;;;;;;35.27;18.80;;;7.00;99.90;;;;;;5051873;28;20493;-70
2022/01/18 00:33:38;;;;;;;25.37;18.33;;;7.00;99.90;;;;;;5033348;28;20983;-70
2022/01/18 00:36:06;;;;;;;30.57;18.93;;;7.00;99.90;;;;;;5054929;28;20538;-70
2022/01/18 00:38:45;;;;;;;34.23;19.70;;;7.00;99.90;;;;;;5051162;28;20505;-70
2022/01/18 00:41:12;;;;;;;27.47;18.83;;;7.00;99.90;;;;;;5057117;28;20554;-72
2022/01/18 00:43:40;;;;;;;30.73;19.67;;;6.90;99.90;;;;;;5058616;28;20471;-72
2022/01/18 00:46:07;;;;;;;32.90;18.63;;;6.80;99.90;;;;;;5051520;28;20472;-71
2022/01/18 00:48:35;;;;;;;31.83;19.10;;;6.90;99.90;;;;;;5060915;28;20478;-70
2022/01/18 00:51:04;;;;;;;39.03;19.17;;;6.90;99.90;;;;;;5052503;28;20546;-71
2022/01/18 00:53:32;;;;;;;30.03;18.03;;;6.90;99.90;;;;;;5057413;28;20875;-72
2022/01/18 00:56:11;;;;;;;31.00;19.93;;;6.90;99.90;;;;;;5056509;28;20463;-70
2022/01/18 00:58:39;;;;;;;34.67;18.87;;;6.80;99.90;;;;;;5055680;28;20495;-71
2022/01/18 01:01:06;;;;;;;31.20;19.83;;;6.80;99.90;;;;;;5055677;28;20569;-71
2022/01/18 01:03:33;;;;;;;38.43;20.17;;;6.80;99.90;;;;;;5051307;28;20459;-71
2022/01/18 01:06:00;;;;;;;32.20;19.80;;;6.80;99.90;;;;;;5053926;28;20460;-72
2022/01/18 01:08:27;;;;;;;37.07;20.10;;;6.90;99.90;;;;;;5059318;28;20470;-70
2022/01/18 01:10:54;;;;;;;29.07;20.90;;;7.00;99.90;;;;;;5057235;28;20497;-71
2022/01/18 01:13:23;;;;;;;29.70;20.10;;;7.00;99.90;;;;;;5054585;28;21016;-72
2022/01/18 01:16:04;;;;;;;32.53;19.67;;;7.10;99.90;;;;;;5053978;28;20796;-72
2022/01/18 01:18:42;;;;;;;34.67;19.80;;;7.00;99.90;;;;;;5049957;28;20497;-69
2022/01/18 01:32:50;;;;;;;33.27;20.93;;;7.20;99.90;;;;;;5050353;28;20981;-69
2022/01/18 01:35:32;;;;;;;32.37;19.77;;;7.20;99.90;;;;;;5060221;28;20519;-70
2022/01/18 01:43:30;;;;;;;33.90;20.80;;;7.10;99.90;;;;;;5059486;28;20465;-73
2022/01/18 01:46:01;;;;;;;37.70;19.53;;;7.10;99.90;;;;;;5053376;28;21117;-70
2022/01/18 01:48:29;;;;;;;38.70;19.13;;;7.10;99.90;;;;;;5057044;28;20997;-72
2022/01/18 01:51:02;;;;;;;30.93;20.50;;;7.20;99.90;;;;;;5055492;28;20463;-72
2022/01/18 01:53:30;;;;;;;32.57;21.47;;;7.10;99.90;;;;;;5047737;28;20575;-72
2022/01/18 01:55:57;;;;;;;43.43;20.60;;;7.10;99.90;;;;;;5055649;28;20466;-73
2022/01/18 01:58:26;;;;;;;33.90;20.63;;;7.10;99.90;;;;;;5056692;28;21034;-73
2022/01/18 02:00:56;;;;;;;47.87;21.67;;;7.10;99.90;;;;;;5055506;28;20487;-74
2022/01/18 02:03:25;;;;;;;44.20;22.93;;;7.10;99.90;;;;;;5054178;28;20468;-71
2022/01/18 02:05:52;;;;;;;39.90;21.13;;;7.10;99.90;;;;;;5051725;28;20475;-70
2022/01/18 02:08:19;;;;;;;34.20;22.13;;;7.10;99.90;;;;;;5057905;28;20988;-71
2022/01/18 02:10:46;;;;;;;32.73;22.53;;;7.00;99.90;;;;;;5063273;28;20472;-71
2022/01/18 02:13:15;;;;;;;33.77;23.20;;;7.10;99.90;;;;;;5055179;28;20491;-70
2022/01/18 02:15:49;;;;;;;34.67;22.40;;;7.10;99.90;;;;;;5051888;28;20819;-70
2022/01/18 02:23:50;;;;;;;39.30;24.50;;;7.10;99.90;;;;;;5046437;28;20853;-70
2022/01/18 02:26:17;;;;;;;44.40;25.00;;;7.10;99.90;;;;;;5054191;28;20486;-71
2022/01/18 02:28:44;;;;;;;37.87;23.50;;;7.10;99.90;;;;;;5049748;28;20530;-71
2022/01/18 02:31:11;;;;;;;34.67;23.70;;;7.10;99.90;;;;;;5053234;28;20470;-71
2022/01/18 02:33:38;;;;;;;35.60;25.17;;;7.10;99.90;;;;;;5051992;28;20543;-71
2022/01/18 02:36:09;;;;;;;43.17;24.90;;;7.10;99.90;;;;;;5059227;28;20537;-70
2022/01/18 02:38:36;;;;;;;40.23;25.10;;;7.20;99.90;;;;;;5049514;28;20487;-71
2022/01/18 02:41:05;;;;;;;41.90;25.17;;;7.10;99.90;;;;;;5059479;28;20471;-70
2022/01/18 02:43:48;;;;;;;42.77;25.30;;;7.10;99.90;;;;;;5053090;28;20463;-69
2022/01/18 02:46:15;;;;;;;50.07;23.90;;;7.10;99.90;;;;;;5051473;28;20450;-70
2022/01/18 02:48:42;;;;;;;34.27;24.07;;;7.10;99.90;;;;;;5057140;28;20851;-70
2022/01/18 02:51:10;;;;;;;35.03;24.63;;;7.00;99.90;;;;;;5057079;28;20460;-71
2022/01/18 02:53:54;;;;;;;42.80;24.40;;;7.10;99.90;;;;;;5055690;28;20466;-71
2022/01/18 02:56:21;;;;;;;28.10;23.50;;;7.10;99.90;;;;;;5055022;28;21023;-71
2022/01/18 02:58:48;;;;;;;49.77;24.47;;;7.10;99.90;;;;;;5056170;28;20886;-69
2022/01/18 03:03:58;;;;;;;46.83;23.77;;;7.10;99.90;;;;;;5053705;28;20470;-71
2022/01/18 03:06:27;;;;;;;40.77;23.50;;;7.00;99.90;;;;;;5064153;28;20473;-71
2022/01/18 03:08:54;;;;;;;41.03;24.97;;;6.90;99.90;;;;;;5058268;28;20487;-70
2022/01/18 03:11:21;;;;;;;33.63;22.63;;;6.90;99.90;;;;;;5057342;28;20472;-71
2022/01/18 03:13:47;;;;;;;30.17;22.90;;;6.90;99.90;;;;;;5053633;28;20935;-70
2022/01/18 03:16:14;;;;;;;33.50;23.33;;;7.00;99.90;;;;;;5056436;28;20945;-69
2022/01/18 03:18:41;;;;;;;46.53;23.67;;;7.00;99.90;;;;;;5062177;28;20874;-70
2022/01/18 03:21:10;;;;;;;46.10;25.70;;;7.00;99.90;;;;;;5061011;28;20485;-70
2022/01/18 03:23:38;;;;;;;33.43;23.83;;;6.90;99.90;;;;;;5058591;28;20462;-71
2022/01/18 03:26:14;;;;;;;33.03;23.63;;;6.90;99.90;;;;;;5059745;28;20470;-71
2022/01/18 03:28:41;;;;;;;30.50;23.70;;;7.00;99.90;;;;;;5052812;28;20780;-69
2022/01/18 03:31:09;;;;;;;31.03;23.00;;;7.00;99.90;;;;;;5056087;28;20459;-70
2022/01/18 03:33:35;;;;;;;32.73;23.43;;;7.00;99.90;;;;;;5058667;28;20473;-70
2022/01/18 03:36:05;;;;;;;37.93;22.97;;;7.00;99.90;;;;;;5058779;28;20455;-69
2022/01/18 03:38:33;;;;;;;34.17;23.43;;;6.90;99.90;;;;;;5054263;28;20517;-70
2022/01/18 03:41:02;;;;;;;23.97;21.37;;;6.70;99.90;;;;;;5062273;28;20463;-70
2022/01/18 03:43:30;;;;;;;39.80;23.53;;;6.70;99.90;;;;;;5058133;28;20455;-70
2022/01/18 03:46:01;;;;;;;39.93;22.80;;;6.70;99.90;;;;;;5054348;28;20463;-71
2022/01/18 03:48:31;;;;;;;46.43;23.87;;;6.80;99.90;;;;;;5054898;28;20523;-72
2022/01/18 03:50:59;;;;;;;42.07;22.60;;;6.80;99.90;;;;;;5058536;28;20498;-70
2022/01/18 03:53:26;;;;;;;41.73;23.20;;;6.90;99.90;;;;;;5052100;28;20474;-70
2022/01/18 03:55:55;;;;;;;36.80;22.50;;;6.90;99.90;;;;;;5063232;28;21181;-70
2022/01/18 03:58:23;;;;;;;37.57;23.30;;;7.00;99.90;;;;;;5053894;28;20466;-71
2022/01/18 04:00:50;;;;;;;42.37;24.30;;;7.00;99.90;;;;;;5059704;28;20482;-69
2022/01/18 04:03:17;;;;;;;43.27;23.30;;;7.00;99.90;;;;;;5050976;28;20477;-71
2022/01/18 04:05:44;;;;;;;32.80;22.40;;;7.00;99.90;;;;;;5051112;28;20494;-68
2022/01/18 04:08:11;;;;;;;37.40;22.63;;;7.00;99.90;;;;;;5057176;28;20631;-69
2022/01/18 04:10:39;;;;;;;37.77;23.43;;;7.00;99.90;;;;;;5057093;28;20497;-69
2022/01/18 04:13:06;;;;;;;40.10;23.83;;;7.00;99.90;;;;;;5056654;28;20990;-71
2022/01/18 04:15:34;;;;;;;47.43;24.67;;;7.00;99.90;;;;;;5055438;28;20468;-70
2022/01/18 04:18:23;;;;;;;43.53;23.30;;;7.00;99.90;;;;;;5054996;28;20478;-69
2022/01/18 04:29:03;;;;;;;48.70;24.20;;;7.00;99.90;;;;;;5046254;28;20466;-71
2022/01/18 04:31:31;;;;;;;46.07;24.13;;;6.90;99.90;;;;;;5052208;28;20547;-70
2022/01/18 04:33:58;;;;;;;34.73;23.90;;;6.90;99.90;;;;;;5059523;28;20469;-69
2022/01/18 04:36:27;;;;;;;45.80;25.20;;;6.90;99.90;;;;;;5057947;28;20837;-69
2022/01/18 04:38:54;;;;;;;45.33;24.73;;;6.70;99.90;;;;;;5060648;28;20854;-68
2022/01/18 04:41:26;;;;;;;47.00;26.37;;;6.70;99.90;;;;;;5058591;28;20480;-70
2022/01/18 04:44:10;;;;;;;32.30;23.13;;;6.70;99.90;;;;;;5060184;28;20462;-68
2022/01/18 04:49:22;;;;;;;38.50;24.40;;;6.80;99.90;;;;;;5053864;28;20532;-69
2022/01/18 04:51:49;;;;;;;34.73;24.07;;;6.80;99.90;;;;;;5055664;28;20531;-70
2022/01/18 04:54:16;;;;;;;47.13;24.30;;;6.80;99.90;;;;;;5055734;28;21024;-69
2022/01/18 04:59:28;;;;;;;54.33;28.07;;;6.70;99.90;;;;;;5057807;28;20497;-70
2022/01/18 05:01:56;;;;;;;47.13;23.70;;;6.60;99.90;;;;;;5033111;28;20490;-70
2022/01/18 05:04:23;;;;;;;30.90;25.00;;;6.60;99.90;;;;;;5033884;28;20476;-71
2022/01/18 05:06:52;;;;;;;43.07;24.47;;;6.50;99.90;;;;;;5034302;28;20477;-69
2022/01/18 05:09:18;;;;;;;44.63;26.00;;;6.50;99.90;;;;;;5033522;28;20461;-69
2022/01/18 05:11:52;;;;;;;42.03;25.57;;;6.50;99.90;;;;;;5033766;28;21044;-69
2022/01/18 05:14:27;;;;;;;41.27;24.50;;;6.50;99.90;;;;;;5028230;28;21512;-69
2022/01/18 05:17:05;;;;;;;57.53;26.00;;;6.40;99.90;;;;;;5032134;28;21362;-69
2022/01/18 05:19:42;;;;;;;32.40;23.77;;;6.50;99.90;;;;;;5032596;28;20497;-69
2022/01/18 05:24:54;;;;;;;44.57;26.07;;;6.50;99.90;;;;;;5033521;28;21096;-70
2022/01/18 05:27:21;;;;;;;55.27;27.10;;;6.50;99.90;;;;;;5031608;28;20485;-69
2022/01/18 05:29:48;;;;;;;41.87;27.40;;;6.50;99.90;;;;;;5032454;28;20511;-69
2022/01/18 05:32:16;;;;;;;43.07;27.07;;;6.40;99.90;;;;;;5031286;28;20470;-69
2022/01/18 05:34:45;;;;;;;51.03;27.27;;;6.40;99.90;;;;;;5031643;28;20473;-70
2022/01/18 05:37:12;;;;;;;37.93;25.37;;;6.40;99.90;;;;;;5033305;28;20474;-70
2022/01/18 05:39:39;;;;;;;45.73;27.10;;;6.50;99.90;;;;;;5028585;28;20545;-69
2022/01/18 05:42:07;;;;;;;47.73;25.97;;;6.50;99.90;;;;;;5030707;28;20455;-70
2022/01/18 05:44:34;;;;;;;43.33;26.30;;;6.50;99.90;;;;;;5030776;28;20549;-71
2022/01/18 05:47:00;;;;;;;50.67;26.17;;;6.50;99.90;;;;;;5052738;28;20527;-69
2022/01/18 05:49:29;;;;;;;45.53;27.00;;;6.40;99.90;;;;;;5023400;28;20972;-69
2022/01/18 05:51:56;;;;;;;36.37;26.77;;;6.30;99.90;;;;;;5026096;28;20471;-69
2022/01/18 05:54:23;;;;;;;54.87;27.40;;;6.30;99.90;;;;;;5027900;28;20475;-69
2022/01/18 05:56:50;;;;;;;39.33;25.73;;;6.30;99.90;;;;;;5027409;28;20470;-68
2022/01/18 05:59:22;;;;;;;38.90;26.93;;;6.30;99.90;;;;;;5028002;28;21733;-72
2022/01/18 06:01:51;;;;;;;59.93;27.40;;;6.20;99.90;;;;;;5026938;28;20518;-70
2022/01/18 06:06:50;;;;;;;64.83;27.13;;;6.20;99.90;;;;;;5025544;28;21027;-70
2022/01/18 06:07:08;;;;;;;47.03;28.17;;;6.20;99.90;;;;;;5027764;28;20583;-69
2022/01/18 06:09:35;;;;;;;49.10;28.27;;;6.20;99.90;;;;;;5027904;28;20532;-70
2022/01/18 06:12:02;;;;;;;43.70;28.20;;;6.20;99.90;;;;;;5026440;28;20494;-71
2022/01/18 06:14:29;;;;;;;57.23;26.30;;;6.30;99.90;;;;;;5049145;28;20450;-70
2022/01/18 06:16:55;;;;;;;65.77;28.30;;;6.30;99.90;;;;;;5037209;28;20467;-70
2022/01/18 06:19:22;;;;;;;48.70;26.97;;;6.40;99.90;;;;;;5026252;28;20499;-70
2022/01/18 06:21:49;;;;;;;81.13;27.67;;;6.40;99.90;;;;;;5026909;28;21069;-71
2022/01/18 06:24:17;;;;;;;44.90;29.37;;;6.40;99.90;;;;;;5027943;28;20471;-70
2022/01/18 06:26:44;;;;;;;51.47;27.27;;;6.40;99.90;;;;;;5028352;28;20454;-70
2022/01/18 06:29:11;;;;;;;47.90;26.43;;;6.50;99.90;;;;;;5026879;28;20481;-71
2022/01/18 06:31:38;;;;;;;35.00;26.93;;;6.50;99.90;;;;;;5025263;28;20470;-70
2022/01/18 06:34:06;;;;;;;58.30;27.13;;;6.50;99.90;;;;;;5026886;28;20463;-71
2022/01/18 06:36:32;;;;;;;45.03;26.17;;;6.40;99.90;;;;;;5026627;28;21000;-70
2022/01/18 06:39:00;;;;;;;58.00;27.23;;;6.40;99.90;;;;;;5027730;28;20996;-72
2022/01/18 06:41:28;;;;;;;41.57;25.50;;;6.40;99.90;;;;;;5027792;28;20479;-69
2022/01/18 06:43:55;;;;;;;33.17;25.20;;;6.40;99.90;;;;;;5026038;28;20466;-70
2022/01/18 06:46:22;;;;;;;60.77;26.87;;;6.40;99.90;;;;;;5027270;28;21148;-71
2022/01/18 06:48:48;;;;;;;36.20;25.17;;;6.40;99.90;;;;;;5026710;28;20461;-70
2022/01/18 06:51:15;;;;;;;46.57;25.83;;;6.40;99.90;;;;;;5025904;28;20506;-71
2022/01/18 06:53:46;;;;;;;47.67;28.63;;;6.40;99.90;;;;;;5021308;28;20471;-70
2022/01/18 06:56:14;;;;;;;65.30;31.57;;;6.50;99.90;;;;;;5024922;28;20474;-71
2022/01/18 06:58:44;;;;;;;56.53;29.47;;;6.50;99.90;;;;;;5025145;28;20592;-70
2022/01/18 07:01:12;;;;;;;31.53;26.97;;;6.50;99.90;;;;;;5028212;28;20502;-70
2022/01/18 07:03:40;;;;;;;49.80;27.13;;;6.50;99.90;;;;;;5049071;28;20470;-70
2022/01/18 07:06:07;;;;;;;59.43;27.03;;;6.40;99.90;;;;;;5052706;28;20509;-70
2022/01/18 07:08:34;;;;;;;44.60;25.57;;;6.50;99.90;;;;;;5041647;28;20512;-70
2022/01/18 07:11:01;;;;;;;43.53;25.63;;;6.60;99.90;;;;;;5025987;28;20854;-71
2022/01/18 07:13:28;;;;;;;38.27;26.37;;;6.60;99.90;;;;;;5025535;28;20510;-70
2022/01/18 07:15:56;;;;;;;41.50;27.27;;;6.60;99.90;;;;;;5024105;28;20472;-70
2022/01/18 07:18:24;;;;;;;39.37;25.97;;;6.60;99.90;;;;;;5025677;28;20464;-71
2022/01/18 07:20:50;;;;;;;45.60;25.93;;;6.60;99.90;;;;;;5024894;28;20494;-70
2022/01/18 07:23:18;;;;;;;37.43;26.70;;;6.60;99.90;;;;;;5024169;28;20471;-72
2022/01/18 07:25:47;;;;;;;44.90;29.40;;;6.70;99.90;;;;;;5040046;28;20466;-70
2022/01/18 07:28:16;;;;;;;40.07;28.87;;;6.70;99.90;;;;;;5045202;28;20464;-69
2022/01/18 07:30:43;;;;;;;51.50;27.80;;;6.70;99.90;;;;;;5036187;28;20476;-71
2022/01/18 07:33:13;;;;;;;52.23;27.70;;;6.60;99.90;;;;;;5024623;28;21252;-70
2022/01/18 07:35:41;;;;;;;47.27;28.33;;;6.70;99.90;;;;;;5024724;28;21087;-70
2022/01/18 07:38:12;;;;;;;39.83;27.83;;;6.60;99.90;;;;;;5025421;28;20468;-70
2022/01/18 07:40:40;;;;;;;50.07;29.13;;;6.60;99.90;;;;;;5026984;28;21143;-70
2022/01/18 07:43:07;;;;;;;54.33;29.70;;;6.60;99.90;;;;;;5025612;28;20506;-71
2022/01/18 07:45:34;;;;;;;44.57;27.40;;;6.60;99.90;;;;;;5027489;28;21269;-70
2022/01/18 07:48:01;;;;;;;58.33;30.17;;;6.60;99.90;;;;;;5029553;28;20882;-70
2022/01/18 07:50:29;;;;;;;47.67;29.47;;;6.70;99.90;;;;;;5028423;28;20464;-71
2022/01/18 07:52:56;;;;;;;55.77;28.27;;;6.80;99.90;;;;;;5026775;28;20466;-71
2022/01/18 07:55:23;;;;;;;52.03;28.90;;;6.80;99.90;;;;;;5029759;28;21103;-71
2022/01/18 07:57:50;;;;;;;53.80;29.20;;;6.70;99.90;;;;;;5026958;28;20913;-71
2022/01/18 08:00:18;;;;;;;47.90;28.03;;;6.60;99.90;;;;;;5027195;28;20492;-70
2022/01/18 08:02:46;;;;;;;47.10;28.30;;;6.50;99.90;;;;;;5023885;28;20466;-71
2022/01/18 08:05:14;;;;;;;58.00;29.50;;;6.70;99.90;;;;;;5028649;28;20460;-71
2022/01/18 08:07:43;;;;;;;61.07;32.20;;;6.80;99.90;;;;;;5027721;28;20541;-70
2022/01/18 08:10:12;;;;;;;44.53;29.87;;;6.80;99.90;;;;;;5028406;28;20493;-71
2022/01/18 08:12:39;;;;;;;69.27;30.97;;;6.80;99.90;;;;;;5027542;28;20588;-70
2022/01/18 08:15:14;;;;;;;51.37;31.10;;;6.70;99.90;;;;;;5026623;28;20459;-70
2022/01/18 08:17:43;;;;;;;56.53;31.40;;;6.70;99.90;;;;;;5029032;28;20567;-70
2022/01/18 08:20:13;;;;;;;63.03;33.57;;;6.70;99.90;;;;;;5038637;28;20992;-70
2022/01/18 08:22:42;;;;;;;68.60;33.53;;;6.60;99.90;;;;;;5027007;28;20471;-70
2022/01/18 08:25:10;;;;;;;53.60;32.93;;;6.60;99.90;;;;;;5028258;28;20531;-70
2022/01/18 08:27:37;;;;;;;57.10;34.77;;;6.70;99.90;;;;;;5026374;28;21032;-71
2022/01/18 08:30:07;;;;;;;55.40;33.77;;;6.80;99.90;;;;;;5026411;28;20842;-70
2022/01/18 08:32:35;;;;;;;55.27;32.80;;;6.80;99.90;;;;;;5025580;28;21090;-71
2022/01/18 08:35:01;;;;;;;57.37;31.93;;;6.90;99.90;;;;;;5030587;28;20569;-71
2022/01/18 08:37:29;;;;;;;62.73;32.27;;;7.10;99.90;;;;;;5044601;28;20473;-72
2022/01/18 08:39:57;;;;;;;71.37;34.53;;;7.20;99.90;;;;;;5045683;28;20890;-69
2022/01/18 08:42:24;;;;;;;52.40;33.43;;;7.10;99.90;;;;;;5044681;28;22510;-70
2022/01/18 08:44:51;;;;;;;63.83;33.43;;;7.20;99.90;;;;;;5038142;28;20471;-71
2022/01/18 08:47:18;;;;;;;66.87;32.97;;;7.40;99.90;;;;;;5026920;28;20473;-73
2022/01/18 08:49:46;;;;;;;74.93;33.17;;;7.30;99.90;;;;;;5027082;28;20455;-71
2022/01/18 08:52:13;;;;;;;53.03;32.77;;;7.20;99.90;;;;;;5025129;28;20542;-70
2022/01/18 08:54:42;;;;;;;59.40;30.80;;;7.20;99.90;;;;;;5028249;28;20482;-71
2022/01/18 08:57:11;;;;;;;51.07;34.00;;;7.10;99.90;;;;;;5025821;28;20462;-72
2022/01/18 08:59:38;;;;;;;59.73;31.47;;;7.30;99.90;;;;;;5024630;28;20495;-70
2022/01/18 09:02:05;;;;;;;65.70;32.90;;;7.40;99.90;;;;;;5023063;28;20486;-70
2022/01/18 09:04:33;;;;;;;51.13;32.47;;;7.40;99.90;;;;;;5019977;28;20459;-70
2022/01/18 09:07:03;;;;;;;67.40;34.07;;;7.40;99.90;;;;;;5030968;28;20550;-69
2022/01/18 09:09:31;;;;;;;58.03;34.77;;;7.50;99.90;;;;;;5044368;28;20460;-70
2022/01/18 09:11:58;;;;;;;45.33;30.87;;;7.60;99.90;;;;;;5042443;28;21438;-70
2022/01/18 09:14:26;;;;;;;42.37;31.80;;;7.60;99.90;;;;;;5036723;28;21013;-70
2022/01/18 09:16:53;;;;;;;54.90;32.00;;;7.60;99.90;;;;;;5015928;28;20491;-72
2022/01/18 09:19:20;;;;;;;55.93;33.57;;;7.60;99.90;;;;;;5025976;28;20856;-71
2022/01/18 09:21:48;;;;;;;44.63;32.47;;;7.70;99.90;;;;;;5024583;28;20634;-71
2022/01/18 09:24:16;;;;;;;47.33;33.50;;;7.80;99.90;;;;;;5021982;28;20470;-70
2022/01/18 09:26:44;;;;;;;49.40;31.87;;;8.00;99.90;;;;;;5022664;28;20475;-71
2022/01/18 09:29:12;;;;;;;53.33;33.73;;;7.90;99.90;;;;;;5023425;28;20446;-71
2022/01/18 09:31:41;;;;;;;51.53;33.97;;;8.10;99.90;;;;;;5025055;28;20493;-70
2022/01/18 09:34:07;;;;;;;44.77;32.97;;;7.90;99.90;;;;;;5026712;28;20825;-71
2022/01/18 09:36:34;;;;;;;55.60;36.13;;;8.00;99.90;;;;;;5023319;28;20792;-70
2022/01/18 09:39:01;;;;;;;46.57;33.30;;;8.00;99.90;;;;;;5025222;28;20462;-71
2022/01/18 09:41:30;;;;;;;52.67;35.13;;;8.10;99.90;;;;;;5022041;28;20594;-71
2022/01/18 09:43:58;;;;;;;59.70;35.53;;;8.10;99.90;;;;;;5020731;28;20464;-72
2022/01/18 09:46:25;;;;;;;50.43;36.10;;;8.10;99.90;;;;;;5022396;28;20468;-71
2022/01/18 09:48:54;;;;;;;56.60;35.10;;;8.20;99.90;;;;;;5026248;28;20653;-71
2022/01/18 09:51:21;;;;;;;48.77;33.23;;;8.40;99.90;;;;;;5025209;28;20472;-69
2022/01/18 09:53:48;;;;;;;51.13;35.47;;;8.40;99.90;;;;;;5024560;28;20463;-72
2022/01/18 09:56:15;;;;;;;58.03;36.63;;;8.50;99.90;;;;;;5026251;28;21004;-71
2022/01/18 09:58:42;;;;;;;53.33;35.33;;;8.60;99.90;;;;;;5023928;28;20458;-71
2022/01/18 10:01:09;;;;;;;52.30;37.97;;;8.60;99.90;;;;;;5024306;28;21027;-70
2022/01/18 10:03:37;;;;;;;51.63;34.07;;;8.70;99.90;;;;;;5026656;28;20472;-71
2022/01/18 10:06:07;;;;;;;46.93;36.40;;;8.70;99.90;;;;;;5025646;28;20460;-72
2022/01/18 10:08:34;;;;;;;69.07;35.03;;;8.80;99.90;;;;;;5024606;28;20475;-71
2022/01/18 10:11:08;;;;;;;47.13;35.13;;;8.80;99.90;;;;;;5025818;28;20887;-71
2022/01/18 10:13:37;;;;;;;46.53;34.73;;;8.90;99.90;;;;;;5025590;28;20512;-72
2022/01/18 10:16:07;;;;;;;49.30;34.93;;;9.00;99.90;;;;;;5025402;28;20467;-70
2022/01/18 10:18:43;;;;;;;52.67;36.30;;;8.80;99.90;;;;;;5023928;28;20545;-71
2022/01/18 10:21:13;;;;;;;52.60;34.27;;;8.60;99.90;;;;;;5022773;28;20494;-72
2022/01/18 10:23:48;;;;;;;51.30;35.53;;;8.50;99.90;;;;;;5023629;28;21529;-71
2022/01/18 10:26:21;;;;;;;44.23;32.40;;;8.70;99.90;;;;;;5024065;28;20468;-72
2022/01/18 10:28:49;;;;;;;47.37;32.53;;;8.80;99.90;;;;;;5023127;28;20464;-71
2022/01/18 10:31:27;;;;;;;42.93;33.53;;;8.60;99.90;;;;;;5024539;28;20874;-71
2022/01/18 10:34:13;;;;;;;44.33;35.17;;;8.60;99.90;;;;;;5025746;28;20466;-72
2022/01/18 10:37:01;;;;;;;46.57;34.67;;;8.60;99.90;;;;;;5025601;28;20503;-71
2022/01/18 10:39:30;;;;;;;45.67;33.93;;;8.80;99.90;;;;;;5025421;28;20482;-71
2022/01/18 10:41:58;;;;;;;67.17;37.87;;;8.90;99.90;;;;;;5025924;28;20526;-71
2022/01/18 10:44:25;;;;;;;44.83;35.90;;;8.90;99.90;;;;;;5039503;28;20459;-70
2022/01/18 10:46:54;;;;;;;55.07;35.80;;;9.00;99.90;;;;;;5045202;28;20459;-70
2022/01/18 10:49:31;;;;;;;51.73;37.40;;;9.10;99.90;;;;;;5044347;28;20472;-72
2022/01/18 10:52:02;;;;;;;53.00;36.00;;;9.10;99.90;;;;;;5048053;28;20516;-72
2022/01/18 10:54:41;;;;;;;37.07;32.53;;;9.20;99.90;;;;;;5032202;28;20463;-70
2022/01/18 10:57:11;;;;;;;43.90;33.40;;;9.40;99.90;;;;;;5024768;28;20464;-71
2022/01/18 10:59:40;;;;;;;45.57;32.87;;;9.50;99.90;;;;;;5025316;28;20478;-72
2022/01/18 11:02:13;;;;;;;48.07;34.10;;;9.30;99.90;;;;;;5025041;28;22423;-71
2022/01/18 11:04:42;;;;;;;44.97;34.20;;;9.10;99.90;;;;;;5023569;28;21160;-72
2022/01/18 11:07:11;;;;;;;34.87;29.50;;;9.50;99.90;;;;;;5022597;28;21012;-70
2022/01/18 11:09:39;;;;;;;44.40;32.37;;;9.90;99.90;;;;;;5023465;28;20466;-71
2022/01/18 11:12:07;;;;;;;41.70;31.97;;;10.20;99.90;;;;;;5025285;28;20944;-70
2022/01/18 11:14:37;;;;;;;36.20;29.03;;;10.70;99.90;;;;;;5032054;28;20819;-71
2022/01/18 11:17:05;;;;;;;38.83;31.87;;;11.10;99.90;;;;;;5047437;28;20568;-71
2022/01/18 11:19:37;;;;;;;36.37;29.03;;;11.50;99.90;;;;;;5039025;28;20470;-70
2022/01/18 11:22:08;;;;;;;34.97;27.93;;;11.60;99.90;;;;;;5029091;28;21061;-72
2022/01/18 11:24:38;;;;;;;31.30;27.27;;;11.80;99.90;;;;;;5029607;28;20472;-71
2022/01/18 11:27:10;;;;;;;41.23;28.00;;;11.30;99.90;;;;;;5028330;28;20512;-71
2022/01/18 11:29:37;;;;;;;33.37;27.43;;;11.40;99.90;;;;;;5029385;28;20973;-71
2022/01/18 11:32:05;;;;;;;33.17;26.80;;;11.50;99.90;;;;;;5028669;28;20463;-72
2022/01/18 11:34:55;;;;;;;44.00;25.40;;;11.90;99.90;;;;;;5028457;28;20470;-71
2022/01/18 11:37:31;;;;;;;26.23;23.53;;;12.20;99.90;;;;;;5029128;28;20460;-71
2022/01/18 11:40:04;;;;;;;34.20;25.50;;;12.40;99.90;;;;;;5029099;28;21190;-71
2022/01/18 11:42:51;;;;;;;31.43;26.10;;;11.90;99.90;;;;;;5028702;28;20492;-71
2022/01/18 11:45:33;;;;;;;36.47;26.27;;;11.90;99.90;;;;;;5028273;28;20466;-69
2022/01/18 11:48:02;;;;;;;33.47;25.97;;;11.80;99.90;;;;;;5028434;28;22031;-71
2022/01/18 11:50:30;;;;;;;35.20;25.70;;;11.60;99.90;;;;;;5029360;28;20470;-70
2022/01/18 11:53:37;;;;;;;32.83;25.37;;;12.10;99.90;;;;;;5025152;28;20809;-70
2022/01/18 11:56:12;;;;;;;33.60;24.87;;;12.30;99.90;;;;;;5021795;28;20478;-71
2022/01/18 11:58:40;;;;;;;25.83;23.30;;;13.10;99.90;;;;;;5026845;28;20765;-71
2022/01/18 12:01:08;;;;;;;35.50;22.07;;;13.70;99.90;;;;;;5026279;28;20507;-73
2022/01/18 12:03:44;;;;;;;22.53;20.13;;;14.00;99.90;;;;;;5025764;28;21030;-72
2022/01/18 12:06:11;;;;;;;23.00;20.67;;;13.60;99.90;;;;;;5028901;28;20467;-72
2022/01/18 12:08:40;;;;;;;27.10;21.43;;;12.60;99.90;;;;;;5027384;28;21076;-71
2022/01/18 12:11:32;;;;;;;23.47;20.90;;;12.70;99.90;;;;;;5028405;28;20561;-71
2022/01/18 12:14:01;;;;;;;22.30;20.00;;;12.90;99.90;;;;;;5027976;28;20459;-70
2022/01/18 12:16:30;;;;;;;21.67;19.23;;;13.00;99.90;;;;;;5028753;28;21120;-71
2022/01/18 12:19:03;;;;;;;26.53;23.70;;;13.00;99.90;;;;;;5041854;28;20474;-71
2022/01/18 12:21:31;;;;;;;28.43;24.67;;;13.00;99.90;;;;;;5046964;28;20549;-71
2022/01/18 12:24:12;;;;;;;35.80;26.03;;;13.80;99.90;;;;;;5037617;28;20463;-71
2022/01/18 12:26:44;;;;;;;28.20;25.10;;;14.60;99.90;;;;;;5024720;28;20946;-70
2022/01/18 12:29:35;;;;;;;32.13;25.20;;;15.20;99.90;;;;;;5024355;28;20559;-71
2022/01/18 12:34:59;;;;;;;40.17;27.27;;;16.40;99.90;;;;;;5031671;28;20463;-71
2022/01/18 12:37:43;;;;;;;30.37;26.93;;;15.50;99.90;;;;;;5041850;28;20566;-70
2022/01/18 12:40:22;;;;;;;28.57;25.83;;;15.10;99.90;;;;;;5047470;28;20464;-70
2022/01/18 12:45:46;;;;;;;35.60;25.67;;;14.50;99.90;;;;;;5027036;28;20885;-72
2022/01/18 12:48:14;;;;;;;31.57;26.23;;;13.90;99.90;;;;;;5026482;28;21175;-71
2022/01/18 12:50:42;;;;;;;29.37;26.00;;;13.60;99.90;;;;;;5025330;28;20847;-71
2022/01/18 12:53:11;;;;;;;30.97;25.50;;;14.10;99.90;;;;;;5023839;28;20470;-71
2022/01/18 12:55:42;;;;;;;33.53;25.43;;;14.70;99.90;;;;;;5026977;28;20489;-71
2022/01/18 12:58:12;;;;;;;38.27;33.90;;;15.40;99.90;;;;;;5026835;28;20486;-71
2022/01/18 13:00:45;;;;;;;29.30;24.80;;;15.50;99.90;;;;;;5028333;28;21005;-71
2022/01/18 13:03:17;;;;;;;30.23;23.30;;;15.90;99.90;;;;;;5026335;28;20486;-73
2022/01/18 13:05:45;;;;;;;25.60;22.90;;;15.70;99.90;;;;;;5027538;28;20664;-72
2022/01/18 13:08:14;;;;;;;28.77;23.40;;;16.20;99.90;;;;;;5026969;28;20456;-72
2022/01/18 13:10:43;;;;;;;28.03;23.90;;;16.70;99.90;;;;;;5027970;28;20896;-72
2022/01/18 13:13:14;;;;;;;24.47;21.97;;;16.80;99.90;;;;;;5026811;28;20832;-72
2022/01/18 13:24:10;;;;;;;28.53;23.43;;;17.20;99.90;;;;;;5025003;28;21069;-72
2022/01/18 13:26:44;;;;;;;26.73;21.50;;;17.00;99.90;;;;;;5021636;28;20460;-72
2022/01/18 13:29:16;;;;;;;26.17;22.13;;;16.70;99.90;;;;;;5023497;28;20463;-72
2022/01/18 13:31:46;;;;;;;27.00;23.40;;;16.90;99.90;;;;;;5020637;28;20463;-74
2022/01/18 13:34:15;;;;;;;27.60;24.90;;;17.50;99.90;;;;;;5030904;28;20459;-71
2022/01/18 13:36:50;;;;;;;24.73;22.33;;;17.60;99.90;;;;;;5030802;28;20471;-72
2022/01/18 13:39:26;;;;;;;23.73;21.73;;;17.70;99.90;;;;;;5030674;28;20450;-73
2022/01/18 13:41:53;;;;;;;25.23;21.90;;;17.20;99.90;;;;;;5027346;28;20497;-72
2022/01/18 13:44:22;;;;;;;26.70;20.77;;;17.70;99.90;;;;;;5030419;28;21086;-71
2022/01/18 13:46:49;;;;;;;23.10;20.63;;;18.20;99.90;;;;;;5051438;28;20996;-72